createdAt,value
2019-02-24T00:00:30.969Z,2.12
2019-02-24T00:03:03.138Z,2.12
2019-02-24T00:05:34.191Z,2.10
2019-02-24T00:08:04.869Z,2.06
2019-02-24T00:10:35.120Z,1.97
2019-02-24T00:13:05.381Z,2.02
2019-02-24T00:15:35.581Z,2.05
2019-02-24T00:18:05.758Z,2.02
2019-02-24T00:20:35.957Z,2.05
2019-02-24T00:23:07.335Z,2.03
2019-02-24T00:25:37.479Z,2.06
2019-02-24T00:28:07.676Z,2.05
2019-02-24T00:30:37.901Z,2.01
2019-02-24T00:33:08.042Z,2.00
2019-02-24T00:35:38.207Z,1.99
2019-02-24T00:38:08.385Z,1.91
2019-02-24T00:40:38.537Z,1.96
2019-02-24T00:43:09.817Z,1.95
2019-02-24T00:45:39.983Z,1.96
2019-02-24T00:48:10.233Z,1.94
2019-02-24T00:50:40.409Z,1.94
2019-02-24T00:53:12.038Z,1.94
2019-02-24T00:55:42.289Z,1.96
2019-02-24T00:58:16.195Z,1.97
2019-02-24T01:00:44.512Z,1.97
2019-02-24T01:03:14.757Z,1.98
2019-02-24T01:05:47.942Z,1.98
2019-02-24T01:08:21.020Z,1.93
2019-02-24T01:10:51.195Z,1.96
2019-02-24T01:13:21.385Z,1.94
2019-02-24T01:15:51.611Z,1.94
2019-02-24T01:18:21.893Z,1.94
2019-02-24T01:20:52.023Z,1.93
2019-02-24T01:23:22.217Z,1.89
2019-02-24T01:25:52.350Z,1.91
2019-02-24T01:28:25.209Z,1.90
2019-02-24T01:30:54.291Z,1.88
2019-02-24T01:33:24.509Z,1.86
2019-02-24T01:35:54.727Z,1.89
2019-02-24T01:38:24.965Z,1.84
2019-02-24T01:40:55.211Z,1.79
2019-02-24T01:43:25.399Z,1.80
2019-02-24T01:45:55.713Z,1.77
2019-02-24T01:48:25.873Z,1.77
2019-02-24T01:50:56.221Z,1.80
2019-02-24T01:53:26.452Z,1.75
2019-02-24T01:55:57.457Z,1.81
2019-02-24T01:58:34.949Z,1.79
2019-02-24T02:01:00.721Z,1.83
2019-02-24T02:03:30.859Z,1.82
2019-02-24T02:06:02.118Z,1.82
2019-02-24T02:08:33.570Z,1.83
2019-02-24T02:11:03.781Z,1.82
2019-02-24T02:13:33.990Z,1.81
2019-02-24T02:16:04.212Z,1.81
2019-02-24T02:18:34.382Z,1.78
2019-02-24T02:21:04.581Z,1.73
2019-02-24T02:23:34.727Z,1.74
2019-02-24T02:26:04.851Z,1.73
2019-02-24T02:28:43.616Z,1.74
2019-02-24T02:31:06.905Z,1.70
2019-02-24T02:33:37.074Z,1.73
2019-02-24T02:36:07.213Z,1.72
2019-02-24T02:38:37.362Z,1.68
2019-02-24T02:41:07.481Z,1.65
2019-02-24T02:43:37.709Z,1.65
2019-02-24T02:46:07.927Z,1.63
2019-02-24T02:48:38.109Z,1.61
2019-02-24T02:51:08.265Z,1.62
2019-02-24T02:53:38.541Z,1.60
2019-02-24T02:56:08.730Z,1.60
2019-02-24T02:58:39.846Z,1.37
2019-02-24T03:01:09.988Z,1.42
2019-02-24T03:03:40.421Z,1.47
2019-02-24T03:06:32.526Z,1.47
2019-02-24T03:09:03.234Z,1.48
2019-02-24T03:11:35.092Z,1.51
2019-02-24T03:14:05.362Z,1.50
2019-02-24T03:16:35.532Z,1.43
2019-02-24T03:19:05.752Z,1.41
2019-02-24T03:21:36.117Z,1.37
2019-02-24T03:24:06.280Z,1.43
2019-02-24T03:26:38.544Z,1.46
2019-02-24T03:29:08.705Z,1.44
2019-02-24T03:31:39.077Z,1.46
2019-02-24T03:34:09.267Z,1.49
2019-02-24T03:36:39.461Z,1.50
2019-02-24T03:39:09.618Z,1.57
2019-02-24T03:41:39.810Z,1.60
2019-02-24T03:44:09.963Z,1.62
2019-02-24T03:46:40.157Z,1.66
2019-02-24T03:49:10.371Z,1.66
2019-02-24T03:51:40.542Z,1.67
2019-02-24T03:54:10.730Z,1.64
2019-02-24T03:56:41.074Z,1.61
2019-02-24T03:59:15.083Z,1.52
2019-02-24T04:01:44.225Z,1.50
2019-02-24T04:04:14.546Z,1.64
2019-02-24T04:06:44.878Z,1.59
2019-02-24T04:09:14.978Z,1.61
2019-02-24T04:11:45.216Z,1.61
2019-02-24T04:14:15.334Z,1.60
2019-02-24T04:16:45.502Z,1.53
2019-02-24T04:19:15.657Z,1.53
2019-02-24T04:21:45.831Z,1.51
2019-02-24T04:24:16.038Z,1.50
2019-02-24T04:26:47.105Z,1.46
2019-02-24T04:29:24.608Z,1.45
2019-02-24T04:31:49.320Z,1.38
2019-02-24T04:34:19.505Z,1.36
2019-02-24T04:36:49.713Z,1.32
2019-02-24T04:39:19.895Z,1.31
2019-02-24T04:41:50.059Z,1.30
2019-02-24T04:44:23.160Z,1.13
2019-02-24T04:46:53.307Z,0.99
2019-02-24T04:49:23.547Z,1.15
2019-02-24T04:51:53.718Z,1.24
2019-02-24T04:54:23.933Z,1.21
2019-02-24T04:56:56.087Z,1.24
2019-02-24T04:59:34.789Z,1.23
2019-02-24T05:01:58.105Z,1.05
2019-02-24T05:04:28.370Z,0.98
2019-02-24T05:06:58.463Z,0.94
2019-02-24T05:09:28.717Z,0.89
2019-02-24T05:11:58.995Z,1.07
2019-02-24T05:14:29.323Z,1.05
2019-02-24T05:16:59.509Z,0.95
2019-02-24T05:19:29.729Z,0.77
2019-02-24T05:21:59.906Z,0.91
2019-02-24T05:24:30.189Z,0.95
2019-02-24T05:27:00.431Z,0.97
2019-02-24T05:29:33.632Z,0.98
2019-02-24T05:32:03.805Z,1.01
2019-02-24T05:34:33.939Z,1.01
2019-02-24T05:37:04.130Z,0.99
2019-02-24T05:39:34.413Z,0.94
2019-02-24T05:42:04.609Z,0.95
2019-02-24T05:44:34.859Z,0.97
2019-02-24T05:47:05.109Z,0.95
2019-02-24T05:49:35.407Z,0.73
2019-02-24T05:52:05.579Z,0.72
2019-02-24T05:54:36.745Z,0.84
2019-02-24T05:57:06.905Z,0.83
2019-02-24T05:59:37.043Z,0.84
2019-02-24T06:02:07.211Z,0.85
2019-02-24T06:04:37.351Z,0.84
2019-02-24T06:07:07.516Z,0.68
2019-02-24T06:09:37.753Z,0.61
2019-02-24T06:12:07.946Z,0.63
2019-02-24T06:14:38.093Z,0.71
2019-02-24T06:17:10.342Z,0.72
2019-02-24T06:19:42.913Z,0.70
2019-02-24T06:22:13.151Z,0.73
2019-02-24T06:24:43.354Z,0.74
2019-02-24T06:27:13.486Z,0.74
2019-02-24T06:29:43.610Z,0.80
2019-02-24T06:32:17.156Z,0.79
2019-02-24T06:34:49.970Z,0.81
2019-02-24T06:37:20.092Z,0.81
2019-02-24T06:39:50.294Z,0.80
2019-02-24T06:42:20.700Z,0.83
2019-02-24T06:44:51.974Z,0.86
2019-02-24T06:47:22.274Z,0.88
2019-02-24T06:49:52.502Z,0.88
2019-02-24T06:52:40.084Z,0.92
2019-02-24T06:55:18.670Z,0.94
2019-02-24T06:57:44.166Z,0.96
2019-02-24T07:00:14.522Z,1.01
2019-02-24T07:02:47.497Z,1.01
2019-02-24T07:05:17.662Z,1.06
2019-02-24T07:07:47.972Z,1.11
2019-02-24T07:10:20.440Z,1.12
2019-02-24T07:12:50.589Z,1.15
2019-02-24T07:15:22.734Z,1.16
2019-02-24T07:17:58.358Z,1.26
2019-02-24T07:20:29.539Z,1.34
2019-02-24T07:22:59.706Z,1.40
2019-02-24T07:25:29.840Z,1.46
2019-02-24T07:28:02.441Z,1.51
2019-02-24T07:30:32.544Z,1.58
2019-02-24T07:33:04.306Z,1.65
2019-02-24T07:35:34.439Z,1.75
2019-02-24T07:38:05.776Z,1.90
2019-02-24T07:40:35.910Z,2.02
2019-02-24T07:43:06.051Z,2.10
2019-02-24T07:45:36.322Z,2.15
2019-02-24T07:48:08.709Z,2.21
2019-02-24T07:50:38.867Z,2.27
2019-02-24T07:53:10.372Z,2.35
2019-02-24T07:55:40.546Z,2.42
2019-02-24T07:58:10.801Z,2.47
2019-02-24T08:00:41.016Z,2.56
2019-02-24T08:03:11.242Z,2.66
2019-02-24T08:05:41.391Z,2.77
2019-02-24T08:08:16.436Z,2.85
2019-02-24T08:10:44.096Z,2.95
2019-02-24T08:13:17.414Z,3.06
2019-02-24T08:15:48.886Z,3.14
2019-02-24T08:18:19.039Z,3.22
2019-02-24T08:20:49.255Z,3.27
2019-02-24T08:23:21.244Z,3.37
2019-02-24T08:25:51.442Z,3.46
2019-02-24T08:28:21.593Z,3.57
2019-02-24T08:30:53.659Z,3.65
2019-02-24T08:33:23.773Z,3.73
2019-02-24T08:35:53.987Z,3.83
2019-02-24T08:38:27.403Z,3.91
2019-02-24T08:41:01.210Z,4.01
2019-02-24T08:43:31.327Z,4.08
2019-02-24T08:46:01.500Z,4.19
2019-02-24T08:48:31.641Z,4.32
2019-02-24T08:51:04.606Z,4.39
2019-02-24T08:53:38.105Z,4.48
2019-02-24T08:56:08.350Z,4.53
2019-02-24T08:58:38.550Z,4.61
2019-02-24T09:01:08.716Z,4.70
2019-02-24T09:03:38.875Z,4.82
2019-02-24T09:06:09.001Z,4.88
2019-02-24T09:08:39.188Z,4.98
2019-02-24T09:11:10.576Z,5.05
2019-02-24T09:13:43.214Z,5.16
2019-02-24T09:16:13.623Z,5.30
2019-02-24T09:18:44.790Z,5.34
2019-02-24T09:21:14.979Z,5.40
2019-02-24T09:23:46.286Z,5.48
2019-02-24T09:26:16.417Z,5.57
2019-02-24T09:28:46.653Z,5.63
2019-02-24T09:31:16.885Z,5.67
2019-02-24T09:33:47.094Z,5.79
2019-02-24T09:36:17.195Z,5.83
2019-02-24T09:38:49.503Z,5.94
2019-02-24T09:41:26.644Z,6.02
2019-02-24T09:43:56.809Z,6.07
2019-02-24T09:46:28.242Z,6.21
2019-02-24T09:48:58.491Z,6.32
2019-02-24T09:51:29.464Z,6.36
2019-02-24T09:53:59.906Z,6.50
2019-02-24T09:56:32.789Z,6.54
2019-02-24T09:59:05.300Z,6.61
2019-02-24T10:01:35.504Z,6.71
2019-02-24T10:04:05.811Z,6.81
2019-02-24T10:06:36.026Z,6.88
2019-02-24T10:09:09.707Z,6.86
2019-02-24T10:11:45.845Z,6.93
2019-02-24T10:14:15.962Z,7.02
2019-02-24T10:16:46.284Z,7.16
2019-02-24T10:19:16.660Z,7.27
2019-02-24T10:21:48.902Z,7.34
2019-02-24T10:24:19.206Z,7.39
2019-02-24T10:26:49.348Z,7.48
2019-02-24T10:29:19.571Z,7.48
2019-02-24T10:31:55.140Z,7.60
2019-02-24T10:34:25.299Z,7.63
2019-02-24T10:36:56.477Z,7.78
2019-02-24T10:39:29.706Z,7.81
2019-02-24T10:41:59.693Z,7.88
2019-02-24T10:44:34.730Z,8.06
2019-02-24T10:47:05.349Z,8.12
2019-02-24T10:49:35.488Z,8.30
2019-02-24T10:52:05.610Z,8.31
2019-02-24T10:54:35.989Z,8.36
2019-02-24T10:57:09.770Z,8.37
2019-02-24T10:59:40.195Z,8.42
2019-02-24T11:02:12.672Z,8.46
2019-02-24T11:04:45.695Z,8.63
2019-02-24T11:07:15.884Z,8.79
2019-02-24T11:09:47.879Z,8.86
2019-02-24T11:12:23.176Z,8.84
2019-02-24T11:14:53.328Z,8.83
2019-02-24T11:17:23.551Z,8.83
2019-02-24T11:19:53.767Z,8.88
2019-02-24T11:22:28.826Z,8.95
2019-02-24T11:25:07.967Z,9.10
2019-02-24T11:27:38.346Z,9.09
2019-02-24T11:30:09.228Z,9.22
2019-02-24T11:32:39.715Z,9.17
2019-02-24T11:35:12.409Z,9.22
2019-02-24T11:37:44.720Z,9.26
2019-02-24T11:40:15.116Z,9.29
2019-02-24T11:42:47.105Z,9.30
2019-02-24T11:45:20.337Z,9.31
2019-02-24T11:47:50.462Z,9.40
2019-02-24T11:50:20.656Z,9.49
2019-02-24T11:52:50.820Z,9.45
2019-02-24T11:55:21.145Z,9.55
2019-02-24T11:57:51.323Z,9.65
2019-02-24T12:00:21.445Z,9.81
2019-02-24T12:02:56.731Z,9.84
2019-02-24T12:05:28.450Z,9.90
2019-02-24T12:07:58.630Z,10.00
2019-02-24T12:10:28.777Z,9.96
2019-02-24T12:13:02.622Z,9.96
2019-02-24T12:15:32.786Z,9.98
2019-02-24T12:18:03.087Z,10.08
2019-02-24T12:20:35.364Z,10.13
2019-02-24T12:23:07.918Z,10.13
2019-02-24T12:25:40.907Z,10.17
2019-02-24T12:28:11.153Z,10.18
2019-02-24T12:30:44.088Z,10.29
2019-02-24T12:33:16.151Z,10.43
2019-02-24T12:35:46.358Z,10.47
2019-02-24T12:38:16.499Z,10.42
2019-02-24T12:40:46.638Z,10.38
2019-02-24T12:43:16.798Z,10.42
2019-02-24T12:45:49.909Z,10.48
2019-02-24T12:48:25.494Z,10.49
2019-02-24T12:50:55.662Z,10.56
2019-02-24T12:53:29.181Z,10.73
2019-02-24T12:55:59.325Z,10.90
2019-02-24T12:58:29.527Z,10.89
2019-02-24T13:00:59.848Z,10.86
2019-02-24T13:03:32.277Z,11.02
2019-02-24T13:06:02.799Z,11.01
2019-02-24T13:08:35.201Z,11.07
2019-02-24T13:11:05.339Z,11.05
2019-02-24T13:13:35.544Z,11.14
2019-02-24T13:16:06.535Z,11.23
2019-02-24T13:18:36.960Z,11.12
2019-02-24T13:21:07.035Z,11.14
2019-02-24T13:23:37.264Z,11.18
2019-02-24T13:26:10.020Z,11.27
2019-02-24T13:28:50.118Z,11.39
2019-02-24T13:31:14.872Z,11.53
2019-02-24T13:33:45.575Z,11.65
2019-02-24T13:36:15.749Z,11.67
2019-02-24T13:38:45.974Z,11.72
2019-02-24T13:41:19.186Z,11.75
2019-02-24T13:43:49.340Z,11.94
2019-02-24T13:46:19.499Z,11.90
2019-02-24T13:48:49.671Z,11.95
2019-02-24T13:51:19.843Z,11.93
2019-02-24T13:53:55.594Z,11.89
2019-02-24T13:56:25.783Z,11.87
2019-02-24T13:58:57.168Z,11.84
2019-02-24T14:01:27.229Z,11.91
2019-02-24T14:03:57.367Z,11.80
2019-02-24T14:06:29.651Z,11.95
2019-02-24T14:09:03.036Z,11.95
2019-02-24T14:11:34.994Z,12.05
2019-02-24T14:14:05.222Z,12.26
2019-02-24T14:16:35.395Z,12.58
2019-02-24T14:19:05.626Z,12.93
2019-02-24T14:21:38.364Z,13.15
2019-02-24T14:24:08.522Z,13.23
2019-02-24T14:26:38.733Z,13.17
2019-02-24T14:29:08.918Z,13.21
2019-02-24T14:31:39.073Z,13.22
2019-02-24T14:34:14.134Z,13.16
2019-02-24T14:36:44.340Z,13.12
2019-02-24T14:39:14.783Z,13.16
2019-02-24T14:41:45.718Z,13.05
2019-02-24T14:44:19.614Z,12.88
2019-02-24T14:46:50.244Z,12.78
2019-02-24T14:49:20.524Z,12.75
2019-02-24T14:51:51.836Z,12.62
2019-02-24T14:54:22.196Z,12.51
2019-02-24T14:56:52.444Z,12.50
2019-02-24T14:59:22.764Z,12.38
2019-02-24T15:01:53.073Z,12.27
2019-02-24T15:04:23.321Z,12.20
2019-02-24T15:06:56.486Z,12.18
2019-02-24T15:09:27.071Z,12.27
2019-02-24T15:11:58.356Z,12.36
2019-02-24T15:14:28.452Z,12.40
2019-02-24T15:16:58.826Z,12.33
2019-02-24T15:19:29.425Z,12.23
2019-02-24T15:21:59.809Z,12.25
2019-02-24T15:24:30.238Z,12.00
2019-02-24T15:27:02.373Z,11.82
2019-02-24T15:29:36.057Z,11.68
2019-02-24T15:32:06.410Z,11.56
2019-02-24T15:34:37.857Z,11.48
2019-02-24T15:37:09.815Z,11.45
2019-02-24T15:39:43.245Z,11.39
2019-02-24T15:42:13.465Z,11.32
2019-02-24T15:44:47.065Z,11.26
2019-02-24T15:47:17.321Z,11.20
2019-02-24T15:49:47.586Z,11.14
2019-02-24T15:52:17.842Z,11.07
2019-02-24T15:54:48.098Z,11.02
2019-02-24T15:57:18.278Z,10.97
2019-02-24T15:59:48.912Z,10.91
2019-02-24T16:02:19.756Z,10.84
2019-02-24T16:04:50.259Z,10.78
2019-02-24T16:07:20.789Z,10.75
2019-02-24T16:09:51.216Z,10.71
2019-02-24T16:12:21.459Z,10.66
2019-02-24T16:14:51.695Z,10.64
2019-02-24T16:17:22.152Z,10.60
2019-02-24T16:19:53.390Z,10.55
2019-02-24T16:22:25.391Z,10.52
2019-02-24T16:24:56.607Z,10.56
2019-02-24T16:27:28.521Z,10.46
2019-02-24T16:29:59.115Z,10.38
2019-02-24T16:32:31.886Z,10.39
2019-02-24T16:35:04.792Z,10.39
2019-02-24T16:37:35.073Z,10.26
2019-02-24T16:40:09.005Z,10.17
2019-02-24T16:42:47.398Z,10.05
2019-02-24T16:45:19.098Z,9.91
2019-02-24T16:47:49.424Z,9.78
2019-02-24T16:50:24.433Z,9.67
2019-02-24T16:52:58.930Z,9.56
2019-02-24T16:55:29.536Z,9.45
2019-02-24T16:58:07.855Z,9.32
2019-02-24T17:00:39.895Z,9.24
2019-02-24T17:03:19.703Z,9.13
2019-02-24T17:05:44.630Z,9.05
2019-02-24T17:08:19.722Z,8.96
2019-02-24T17:10:52.195Z,8.88
2019-02-24T17:13:22.646Z,8.78
2019-02-24T17:15:53.220Z,8.72
2019-02-24T17:18:23.666Z,8.62
2019-02-24T17:20:54.013Z,8.54
2019-02-24T17:23:25.742Z,8.47
2019-02-24T17:25:56.220Z,8.40
2019-02-24T17:28:30.289Z,8.34
2019-02-24T17:31:02.005Z,8.28
2019-02-24T17:33:33.600Z,8.21
2019-02-24T17:36:07.672Z,8.15
2019-02-24T17:38:38.104Z,8.07
2019-02-24T17:41:08.554Z,8.01
2019-02-24T17:43:38.714Z,7.97
2019-02-24T17:46:11.291Z,7.91
2019-02-24T17:48:41.609Z,7.87
2019-02-24T17:51:20.866Z,7.82
2019-02-24T17:53:46.743Z,7.77
2019-02-24T17:56:20.052Z,7.70
2019-02-24T17:58:51.581Z,7.64
2019-02-24T18:01:23.154Z,7.59
2019-02-24T18:03:54.637Z,7.56
2019-02-24T18:06:27.638Z,7.50
2019-02-24T18:08:58.222Z,7.43
2019-02-24T18:11:28.686Z,7.37
2019-02-24T18:13:59.139Z,7.33
2019-02-24T18:16:29.449Z,7.28
2019-02-24T18:18:59.868Z,7.23
2019-02-24T18:21:30.209Z,7.17
2019-02-24T18:24:01.291Z,7.12
2019-02-24T18:26:31.775Z,7.07
2019-02-24T18:29:02.173Z,7.04
2019-02-24T18:32:08.260Z,7.04
2019-02-24T18:34:40.986Z,6.97
2019-02-24T18:37:11.385Z,6.92
2019-02-24T18:39:41.602Z,6.86
2019-02-24T18:42:13.471Z,6.84
2019-02-24T18:44:43.585Z,6.82
2019-02-24T18:47:14.950Z,6.78
2019-02-24T18:49:45.112Z,6.73
2019-02-24T18:52:15.361Z,6.69
2019-02-24T18:55:20.334Z,6.65
2019-02-24T18:57:52.255Z,6.62
2019-02-24T19:00:27.020Z,6.58
2019-02-24T19:02:57.431Z,6.53
2019-02-24T19:05:27.623Z,6.50
2019-02-24T19:07:57.935Z,6.47
2019-02-24T19:10:33.635Z,6.43
2019-02-24T19:13:04.381Z,6.42
2019-02-24T19:15:34.490Z,6.39
2019-02-24T19:18:04.781Z,6.37
2019-02-24T19:20:36.101Z,6.35
2019-02-24T19:23:06.615Z,6.32
2019-02-24T19:25:37.331Z,6.29
2019-02-24T19:28:07.508Z,6.24
2019-02-24T19:30:37.981Z,6.09
2019-02-24T19:33:08.421Z,6.15
2019-02-24T19:35:38.562Z,6.21
2019-02-24T19:38:08.917Z,6.21
2019-02-24T19:40:43.819Z,6.19
2019-02-24T19:43:16.840Z,6.17
2019-02-24T19:45:47.148Z,6.12
2019-02-24T19:48:17.438Z,6.10
2019-02-24T19:50:47.733Z,6.08
2019-02-24T19:53:26.872Z,6.05
2019-02-24T19:56:03.762Z,6.02
2019-02-24T20:06:33.391Z,5.89
2019-02-24T20:09:03.873Z,5.82
2019-02-24T20:11:42.546Z,5.81
2019-02-24T20:14:13.098Z,5.79
2019-02-24T20:16:46.340Z,5.78
2019-02-24T20:19:21.687Z,5.77
2019-02-24T20:21:59.019Z,5.76
2019-02-24T20:24:34.384Z,5.77
2019-02-24T20:27:07.357Z,5.74
2019-02-24T20:29:39.477Z,5.73
2019-02-24T20:32:09.813Z,5.68
2019-02-24T20:34:43.013Z,5.65
2019-02-24T20:37:13.316Z,5.58
2019-02-24T20:39:43.542Z,5.57
2019-02-24T20:42:17.345Z,5.45
2019-02-24T20:44:49.068Z,5.53
2019-02-24T20:47:19.448Z,5.50
2019-02-24T20:49:49.701Z,5.54
2019-02-24T20:52:19.902Z,5.55
2019-02-24T20:54:50.159Z,5.54
2019-02-24T20:57:20.408Z,5.53
2019-02-24T20:59:50.923Z,5.52
2019-02-24T21:02:21.228Z,5.50
2019-02-24T21:04:51.418Z,5.48
2019-02-24T21:07:21.625Z,5.46
2019-02-24T21:09:53.925Z,5.40
2019-02-24T21:12:24.279Z,5.37
2019-02-24T21:14:54.651Z,5.36
2019-02-24T21:17:26.117Z,5.37
2019-02-24T21:19:58.797Z,5.34
2019-02-24T21:22:29.391Z,5.33
2019-02-24T21:25:00.006Z,5.33
2019-02-24T21:27:30.529Z,5.31
2019-02-24T21:30:03.909Z,5.28
2019-02-24T21:32:35.725Z,5.22
2019-02-24T21:35:06.845Z,5.22
2019-02-24T21:37:37.488Z,5.21
2019-02-24T21:40:08.058Z,5.19
2019-02-24T21:42:38.818Z,5.16
2019-02-24T21:45:12.103Z,5.03
2019-02-24T21:47:42.943Z,4.91
2019-02-24T21:50:14.356Z,4.98
2019-02-24T21:52:44.891Z,4.87
2019-02-24T21:55:15.001Z,4.91
2019-02-24T21:57:46.058Z,4.99
2019-02-24T22:00:18.892Z,4.96
2019-02-24T22:02:49.219Z,4.87
2019-02-24T22:05:21.680Z,4.79
2019-02-24T22:07:55.684Z,4.64
2019-02-24T22:10:29.751Z,4.54
2019-02-24T22:12:59.593Z,4.68
2019-02-24T22:15:31.459Z,4.87
2019-02-24T22:18:02.459Z,4.90
2019-02-24T22:20:32.583Z,4.89
2019-02-24T22:23:05.083Z,4.91
2019-02-24T22:25:35.201Z,4.89
2019-02-24T22:28:06.538Z,4.87
2019-02-24T22:30:36.751Z,4.86
2019-02-24T22:33:06.954Z,4.82
2019-02-24T22:35:38.353Z,4.75
2019-02-24T22:38:10.353Z,4.65
2019-02-24T22:40:40.568Z,4.69
2019-02-24T22:43:10.812Z,4.67
2019-02-24T22:45:40.992Z,4.67
2019-02-24T22:48:11.144Z,4.65
2019-02-24T22:50:41.301Z,4.66
2019-02-24T22:53:11.443Z,4.66
2019-02-24T22:55:42.382Z,4.63
2019-02-24T22:58:12.630Z,4.62
2019-02-24T23:00:57.435Z,4.57
2019-02-24T23:03:31.670Z,4.55
2019-02-24T23:06:01.824Z,4.43
2019-02-24T23:08:33.340Z,4.46
2019-02-24T23:11:05.487Z,4.42
2019-02-24T23:13:36.434Z,4.40
2019-02-24T23:16:06.798Z,4.41
2019-02-24T23:18:37.346Z,4.42
2019-02-24T23:21:07.492Z,4.41
2019-02-24T23:23:37.764Z,4.38
2019-02-24T23:26:07.986Z,4.40
2019-02-24T23:28:38.208Z,4.41
2019-02-24T23:31:08.338Z,4.38
2019-02-24T23:33:38.496Z,4.39
2019-02-24T23:36:08.758Z,4.35
2019-02-24T23:38:38.920Z,4.30
2019-02-24T23:41:09.298Z,4.30
2019-02-24T23:43:39.387Z,4.21
2019-02-24T23:46:09.530Z,4.18
2019-02-24T23:48:42.010Z,4.18
2019-02-24T23:51:12.186Z,4.19
2019-02-24T23:53:43.378Z,4.20
2019-02-24T23:56:13.662Z,4.16
2019-02-24T23:58:43.812Z,4.10
